createdAt,value
2023-04-01T00:00:31.742Z,71.57
2023-04-01T00:02:59.466Z,71.05
2023-04-01T00:05:27.477Z,71.31
2023-04-01T00:07:55.066Z,71.09
2023-04-01T00:10:22.493Z,71.39
2023-04-01T00:12:50.178Z,71.03
2023-04-01T00:15:17.746Z,71.09
2023-04-01T00:17:45.851Z,71.04
2023-04-01T00:20:15.333Z,70.99
2023-04-01T00:22:43.029Z,71.31
2023-04-01T00:25:10.923Z,71.64
2023-04-01T00:27:38.385Z,71.35
2023-04-01T00:30:06.881Z,71.09
2023-04-01T00:32:35.513Z,71.14
2023-04-01T00:35:04.117Z,71.22
2023-04-01T00:37:32.008Z,71.27
2023-04-01T00:40:00.197Z,71.40
2023-04-01T00:42:27.926Z,71.18
2023-04-01T00:44:56.499Z,71.29
2023-04-01T00:47:27.754Z,71.48
2023-04-01T00:49:56.256Z,71.18
2023-04-01T00:52:26.711Z,71.46
2023-04-01T00:55:00.186Z,71.77
2023-04-01T00:57:37.658Z,71.48
2023-04-01T01:00:10.531Z,71.33
2023-04-01T01:02:39.388Z,71.35
2023-04-01T01:05:07.356Z,71.24
2023-04-01T01:07:37.842Z,71.86
2023-04-01T01:10:35.105Z,71.96
2023-04-01T01:13:21.527Z,71.65
2023-04-01T01:15:53.161Z,71.24
2023-04-01T01:18:34.357Z,71.54
2023-04-01T01:21:30.072Z,71.59
2023-04-01T01:24:12.297Z,71.77
2023-04-01T01:27:03.791Z,71.60
2023-04-01T01:29:49.411Z,71.73
2023-04-01T01:32:35.174Z,70.81
2023-04-01T01:35:21.172Z,71.53
2023-04-01T01:37:55.016Z,71.22
2023-04-01T01:40:25.977Z,71.43
2023-04-01T01:42:59.792Z,71.27
2023-04-01T01:45:30.350Z,71.34
2023-04-01T01:47:59.885Z,71.36
2023-04-01T01:50:30.827Z,71.35
2023-04-01T01:53:07.429Z,71.94
2023-04-01T01:55:37.783Z,71.61
2023-04-01T01:58:17.573Z,72.01
2023-04-01T02:00:50.537Z,71.23
2023-04-01T02:03:21.160Z,71.54
2023-04-01T02:05:53.009Z,71.06
2023-04-01T02:08:36.966Z,72.06
2023-04-01T02:11:11.003Z,71.64
2023-04-01T02:13:52.298Z,71.96
2023-04-01T02:16:51.315Z,71.53
2023-04-01T02:19:23.840Z,70.96
2023-04-01T02:21:58.913Z,71.43
2023-04-01T02:24:29.721Z,71.06
2023-04-01T02:26:57.618Z,71.28
2023-04-01T02:29:26.813Z,71.08
2023-04-01T02:31:56.196Z,71.04
2023-04-01T02:34:27.164Z,71.22
2023-04-01T02:36:56.938Z,71.56
2023-04-01T02:39:26.843Z,71.03
2023-04-01T02:41:55.352Z,71.12
2023-04-01T02:44:23.658Z,71.20
2023-04-01T02:46:51.294Z,71.38
2023-04-01T02:49:18.725Z,71.06
2023-04-01T02:51:46.840Z,71.22
2023-04-01T02:54:14.653Z,71.16
2023-04-01T02:56:42.700Z,70.31
2023-04-01T02:59:10.958Z,70.47
2023-04-01T03:01:38.610Z,70.22
2023-04-01T03:04:06.364Z,70.57
2023-04-01T03:06:33.848Z,70.51
2023-04-01T03:09:01.308Z,70.34
2023-04-01T03:11:31.461Z,70.40
2023-04-01T03:13:59.130Z,70.18
2023-04-01T03:16:26.806Z,69.93
2023-04-01T03:18:56.492Z,70.54
2023-04-01T03:21:25.784Z,70.56
2023-04-01T03:23:53.497Z,70.25
2023-04-01T03:26:23.883Z,70.45
2023-04-01T03:28:51.765Z,70.34
2023-04-01T03:31:23.260Z,70.87
2023-04-01T03:33:55.452Z,70.64
2023-04-01T03:36:23.915Z,70.74
2023-04-01T03:38:51.729Z,70.57
2023-04-01T03:41:26.655Z,70.59
2023-04-01T03:43:55.213Z,71.05
2023-04-01T03:46:23.114Z,71.05
2023-04-01T03:48:51.053Z,70.81
2023-04-01T03:51:18.861Z,70.76
2023-04-01T03:53:46.484Z,70.65
2023-04-01T03:56:14.252Z,70.49
2023-04-01T03:58:42.102Z,70.85
2023-04-01T04:01:22.364Z,71.14
2023-04-01T04:03:53.569Z,70.84
2023-04-01T04:06:23.881Z,70.69
2023-04-01T04:08:51.950Z,70.60
2023-04-01T04:11:21.205Z,70.52
2023-04-01T04:13:49.884Z,70.41
2023-04-01T04:16:18.744Z,71.05
2023-04-01T04:18:52.281Z,70.75
2023-04-01T04:21:20.043Z,70.76
2023-04-01T04:23:47.701Z,70.44
2023-04-01T04:26:17.769Z,70.50
2023-04-01T04:28:51.739Z,70.28
2023-04-01T04:31:24.842Z,70.35
2023-04-01T04:33:54.626Z,69.99
2023-04-01T04:36:23.071Z,70.19
2023-04-01T04:38:52.245Z,70.04
2023-04-01T04:41:20.491Z,70.11
2023-04-01T04:43:53.456Z,70.07
2023-04-01T04:46:24.023Z,69.53
2023-04-01T04:48:57.353Z,69.91
2023-04-01T04:51:26.990Z,69.72
2023-04-01T04:54:03.068Z,69.82
2023-04-01T04:56:43.808Z,69.39
2023-04-01T04:59:11.974Z,69.50
2023-04-01T05:02:03.016Z,69.48
2023-04-01T05:04:31.059Z,69.64
2023-04-01T05:06:58.765Z,69.57
2023-04-01T05:09:26.302Z,69.36
2023-04-01T05:11:56.168Z,69.12
2023-04-01T05:14:25.514Z,69.21
2023-04-01T05:17:00.958Z,68.71
2023-04-01T05:19:29.006Z,68.46
2023-04-01T05:21:56.521Z,68.71
2023-04-01T05:24:23.994Z,68.89
2023-04-01T05:26:52.880Z,68.94
2023-04-01T05:29:21.019Z,69.13
2023-04-01T05:31:56.319Z,68.79
2023-04-01T05:34:23.903Z,68.79
2023-04-01T05:36:51.452Z,69.20
2023-04-01T05:39:19.290Z,69.00
2023-04-01T05:41:47.211Z,68.96
2023-04-01T05:44:14.694Z,69.02
2023-04-01T05:46:42.858Z,68.69
2023-04-01T05:49:19.089Z,68.36
2023-04-01T05:51:46.836Z,68.27
2023-04-01T05:54:14.473Z,67.90
2023-04-01T05:56:42.285Z,67.47
2023-04-01T05:59:13.022Z,67.45
2023-04-01T06:01:40.698Z,66.90
2023-04-01T06:04:11.446Z,66.86
2023-04-01T06:06:41.010Z,66.58
2023-04-01T06:09:20.192Z,66.12
2023-04-01T06:11:58.073Z,66.27
2023-04-01T06:14:44.350Z,65.45
2023-04-01T06:17:53.681Z,64.94
2023-04-01T06:20:51.616Z,64.46
2023-04-01T06:23:58.054Z,64.29
2023-04-01T06:26:59.552Z,63.89
2023-04-01T06:29:58.740Z,63.95
2023-04-01T06:32:47.544Z,63.33
2023-04-01T06:35:25.999Z,63.15
2023-04-01T06:38:12.881Z,62.94
2023-04-01T06:40:49.775Z,63.19
2023-04-01T06:43:31.430Z,63.33
2023-04-01T06:47:00.118Z,62.90
2023-04-01T06:49:59.967Z,63.13
2023-04-01T06:52:45.887Z,63.30
2023-04-01T06:55:38.989Z,62.75
2023-04-01T06:58:27.473Z,62.66
2023-04-01T07:01:00.582Z,62.86
2023-04-01T07:04:00.217Z,62.23
2023-04-01T07:06:29.190Z,62.51
2023-04-01T07:09:05.478Z,62.07
2023-04-01T07:11:58.803Z,61.78
2023-04-01T07:15:13.191Z,61.50
2023-04-01T07:17:44.399Z,61.06
2023-04-01T07:20:27.435Z,60.45
2023-04-01T07:23:11.617Z,59.40
2023-04-01T07:26:06.766Z,58.36
2023-04-01T07:28:59.930Z,58.05
2023-04-01T07:32:08.639Z,55.48
2023-04-01T07:35:13.827Z,54.36
2023-04-01T07:38:06.778Z,53.24
2023-04-01T07:40:49.443Z,53.93
2023-04-01T07:43:30.392Z,51.73
2023-04-01T07:46:43.722Z,51.70
2023-04-01T07:49:18.464Z,52.21
2023-04-01T07:52:12.238Z,52.85
2023-04-01T07:54:43.902Z,52.26
2023-04-01T07:57:47.143Z,51.03
2023-04-01T08:00:17.748Z,50.93
2023-04-01T08:03:11.753Z,50.21
2023-04-01T08:05:47.470Z,49.24
2023-04-01T08:08:16.625Z,49.11
2023-04-01T08:11:16.181Z,49.12
2023-04-01T08:14:09.177Z,49.23
2023-04-01T08:17:28.661Z,49.24
2023-04-01T08:20:08.997Z,47.88
2023-04-01T08:22:48.684Z,47.33
2023-04-01T08:25:31.144Z,46.89
2023-04-01T08:28:16.973Z,44.62
2023-04-01T08:30:57.019Z,44.75
2023-04-01T08:33:32.029Z,43.55
2023-04-01T08:36:32.655Z,41.06
2023-04-01T08:39:17.424Z,38.91
2023-04-01T08:42:23.854Z,36.63
2023-04-01T08:45:45.047Z,36.75
2023-04-01T08:48:18.681Z,37.66
2023-04-01T08:50:53.246Z,33.61
2023-04-01T08:53:35.541Z,31.99
2023-04-01T08:56:23.468Z,33.24
2023-04-01T08:59:09.311Z,32.46
2023-04-01T09:02:28.243Z,31.98
2023-04-01T09:05:17.779Z,33.60
2023-04-01T09:07:58.128Z,31.62
2023-04-01T09:10:42.688Z,30.75
2023-04-01T09:14:07.305Z,27.99
2023-04-01T09:16:57.127Z,26.66
2023-04-01T09:19:33.556Z,25.53
2023-04-01T09:22:14.654Z,24.92
2023-04-01T09:24:45.476Z,24.61
2023-04-01T09:27:18.663Z,24.53
2023-04-01T09:29:59.811Z,23.11
2023-04-01T09:33:02.957Z,24.10
2023-04-01T09:35:49.571Z,21.93
2023-04-01T09:38:23.010Z,21.66
2023-04-01T09:41:09.539Z,21.87
2023-04-01T09:44:04.929Z,22.31
2023-04-01T09:46:59.122Z,22.77
2023-04-01T09:49:46.815Z,22.62
2023-04-01T09:52:33.414Z,21.93
2023-04-01T09:55:27.314Z,21.17
2023-04-01T09:58:43.704Z,20.97
2023-04-01T10:02:07.026Z,20.45
2023-04-01T10:05:02.733Z,19.43
2023-04-01T10:08:03.835Z,17.64
2023-04-01T10:10:44.263Z,20.10
2023-04-01T10:13:38.155Z,22.00
2023-04-01T10:16:20.988Z,23.39
2023-04-01T10:19:05.830Z,24.56
2023-04-01T10:21:58.030Z,24.62
2023-04-01T10:24:44.540Z,23.58
2023-04-01T10:27:23.315Z,21.66
2023-04-01T10:30:51.932Z,20.74
2023-04-01T10:33:47.918Z,19.25
2023-04-01T10:36:37.159Z,17.93
2023-04-01T10:39:36.337Z,16.76
2023-04-01T10:43:01.960Z,17.34
2023-04-01T10:45:42.641Z,16.73
2023-04-01T10:48:47.755Z,17.88
2023-04-01T10:51:23.089Z,17.09
2023-04-01T10:54:16.964Z,16.85
2023-04-01T10:57:02.277Z,15.68
2023-04-01T11:00:34.759Z,16.01
2023-04-01T11:03:54.767Z,16.02
2023-04-01T11:06:57.217Z,15.63
2023-04-01T11:09:46.747Z,15.80
2023-04-01T11:12:43.076Z,16.79
2023-04-01T11:15:19.675Z,18.20
2023-04-01T11:18:25.754Z,19.68
2023-04-01T11:21:34.971Z,18.13
2023-04-01T11:24:14.675Z,19.03
2023-04-01T11:27:18.092Z,21.41
2023-04-01T11:30:21.405Z,22.71
2023-04-01T11:33:32.818Z,24.68
2023-04-01T11:36:13.598Z,25.92
2023-04-01T11:39:00.754Z,26.20
2023-04-01T11:42:20.923Z,27.77
2023-04-01T11:45:16.664Z,28.22
2023-04-01T11:48:07.504Z,29.57
2023-04-01T11:50:53.936Z,30.40
2023-04-01T11:53:32.565Z,31.20
2023-04-01T11:56:30.737Z,31.34
2023-04-01T11:59:04.713Z,30.78
2023-04-01T12:01:41.444Z,32.72
2023-04-01T12:04:43.714Z,33.93
2023-04-01T12:07:50.567Z,34.57
2023-04-01T12:10:41.674Z,35.33
2023-04-01T12:13:24.299Z,35.07
2023-04-01T12:16:11.038Z,35.57
2023-04-01T12:19:05.817Z,35.94
2023-04-01T12:21:53.747Z,35.61
2023-04-01T12:24:52.659Z,36.49
2023-04-01T12:28:11.072Z,36.96
2023-04-01T12:30:38.606Z,36.06
2023-04-01T12:33:26.743Z,36.32
2023-04-01T12:36:31.729Z,37.00
2023-04-01T12:39:34.761Z,36.42
2023-04-01T12:42:21.001Z,36.46
2023-04-01T12:44:50.704Z,36.05
2023-04-01T12:47:27.444Z,36.37
2023-04-01T12:50:07.248Z,36.08
2023-04-01T12:52:45.525Z,35.86
2023-04-01T12:55:34.491Z,35.88
2023-04-01T12:58:39.396Z,36.84
2023-04-01T13:01:28.609Z,36.50
2023-04-01T13:04:18.214Z,35.82
2023-04-01T13:06:57.594Z,34.89
2023-04-01T13:09:54.033Z,34.93
2023-04-01T13:12:40.065Z,35.21
2023-04-01T13:15:26.550Z,35.91
2023-04-01T13:18:06.618Z,37.03
2023-04-01T13:20:41.596Z,37.40
2023-04-01T13:23:27.661Z,39.69
2023-04-01T13:26:16.642Z,39.98
2023-04-01T13:28:50.014Z,39.55
2023-04-01T13:31:29.623Z,41.89
2023-04-01T13:34:17.955Z,41.40
2023-04-01T13:37:06.108Z,42.90
2023-04-01T13:39:42.202Z,43.24
2023-04-01T13:42:09.882Z,42.78
2023-04-01T13:45:11.978Z,44.86
2023-04-01T13:48:10.485Z,44.24
2023-04-01T13:50:57.094Z,45.10
2023-04-01T13:53:30.714Z,44.53
2023-04-01T13:56:16.489Z,45.37
2023-04-01T13:58:52.751Z,45.58
2023-04-01T14:01:29.610Z,45.22
2023-04-01T14:04:19.173Z,45.64
2023-04-01T14:07:03.184Z,45.79
2023-04-01T14:10:15.734Z,46.51
2023-04-01T14:13:08.928Z,46.27
2023-04-01T14:16:07.585Z,46.79
2023-04-01T14:18:55.193Z,46.57
2023-04-01T14:21:34.602Z,46.69
2023-04-01T14:24:19.378Z,47.43
2023-04-01T14:27:10.323Z,47.89
2023-04-01T14:30:21.635Z,48.37
2023-04-01T14:33:18.887Z,48.88
2023-04-01T14:36:19.496Z,49.60
2023-04-01T14:39:39.595Z,50.47
2023-04-01T14:42:21.915Z,49.06
2023-04-01T14:45:27.213Z,51.77
2023-04-01T14:48:28.082Z,50.45
2023-04-01T14:50:58.667Z,50.90
2023-04-01T14:53:26.219Z,50.39
2023-04-01T14:55:54.901Z,51.12
2023-04-01T14:58:26.551Z,51.56
2023-04-01T15:01:02.923Z,51.98
2023-04-01T15:03:32.714Z,54.27
2023-04-01T15:06:22.127Z,55.63
2023-04-01T15:09:04.899Z,55.36
2023-04-01T15:11:53.299Z,56.03
2023-04-01T15:14:52.512Z,56.44
2023-04-01T15:17:38.493Z,55.39
2023-04-01T15:20:36.889Z,57.76
2023-04-01T15:23:26.275Z,57.01
2023-04-01T15:25:56.819Z,57.02
2023-04-01T15:28:59.433Z,56.77
2023-04-01T15:31:43.729Z,58.38
2023-04-01T15:34:34.488Z,58.79
2023-04-01T15:37:23.012Z,56.89
2023-04-01T15:40:09.141Z,56.64
2023-04-01T15:42:59.662Z,58.50
2023-04-01T15:45:57.809Z,59.10
2023-04-01T15:48:47.558Z,57.82
2023-04-01T15:51:25.250Z,57.46
2023-04-01T15:54:23.845Z,58.26
2023-04-01T15:57:11.536Z,58.41
2023-04-01T16:00:12.619Z,58.32
2023-04-01T16:02:52.348Z,58.60
2023-04-01T16:05:28.328Z,58.21
2023-04-01T16:07:58.940Z,57.85
2023-04-01T16:10:35.515Z,57.87
2023-04-01T16:13:42.665Z,58.70
2023-04-01T16:16:25.132Z,58.99
2023-04-01T16:19:14.548Z,59.71
2023-04-01T16:22:07.940Z,60.09
2023-04-01T16:24:56.436Z,60.83
2023-04-01T16:27:31.017Z,60.05
2023-04-01T16:30:24.444Z,61.02
2023-04-01T16:32:58.471Z,61.49
2023-04-01T16:35:38.512Z,61.32
2023-04-01T16:38:27.897Z,62.60
2023-04-01T16:41:08.997Z,62.39
2023-04-01T16:43:36.533Z,61.56
2023-04-01T16:46:16.476Z,61.85
2023-04-01T16:48:43.985Z,61.84
2023-04-01T16:51:16.554Z,62.94
2023-04-01T16:53:50.712Z,62.68
2023-04-01T16:56:25.794Z,63.45
2023-04-01T16:59:02.653Z,63.06
2023-04-01T17:01:48.963Z,63.46
2023-04-01T17:04:43.833Z,63.70
2023-04-01T17:07:58.570Z,64.05
2023-04-01T17:10:49.038Z,63.28
2023-04-01T17:13:28.501Z,64.54
2023-04-01T17:16:15.215Z,63.47
2023-04-01T17:19:09.027Z,64.79
2023-04-01T17:21:48.467Z,64.45
2023-04-01T17:24:46.864Z,64.56
2023-04-01T17:27:21.211Z,64.22
2023-04-01T17:30:07.361Z,64.72
2023-04-01T17:32:43.872Z,63.66
2023-04-01T17:35:28.083Z,64.84
2023-04-01T17:38:20.712Z,65.07
2023-04-01T17:40:59.716Z,65.15
2023-04-01T17:44:05.739Z,64.30
2023-04-01T17:46:57.583Z,64.34
2023-04-01T17:50:11.124Z,65.17
2023-04-01T17:52:48.508Z,65.36
2023-04-01T17:55:34.627Z,65.56
2023-04-01T17:58:21.827Z,65.47
2023-04-01T18:00:54.057Z,64.23
2023-04-01T18:03:34.213Z,64.69
2023-04-01T18:06:04.948Z,64.55
2023-04-01T18:09:16.768Z,65.60
2023-04-01T18:12:06.218Z,64.86
2023-04-01T18:14:42.699Z,65.83
2023-04-01T18:17:27.703Z,65.55
2023-04-01T18:19:55.154Z,64.82
2023-04-01T18:22:40.897Z,65.24
2023-04-01T18:25:49.216Z,66.37
2023-04-01T18:28:32.146Z,65.39
2023-04-01T18:31:02.794Z,65.49
2023-04-01T18:33:42.564Z,65.56
2023-04-01T18:36:35.670Z,66.02
2023-04-01T18:39:10.688Z,65.60
2023-04-01T18:42:16.851Z,65.91
2023-04-01T18:44:49.997Z,65.90
2023-04-01T18:47:34.839Z,65.92
2023-04-01T18:50:27.768Z,67.30
2023-04-01T18:53:10.012Z,66.74
2023-04-01T18:55:48.035Z,66.08
2023-04-01T18:58:23.208Z,65.86
2023-04-01T19:00:56.551Z,66.82
2023-04-01T19:03:57.965Z,66.09
2023-04-01T19:06:31.592Z,65.83
2023-04-01T19:09:19.932Z,66.80
2023-04-01T19:12:09.967Z,66.60
2023-04-01T19:14:40.664Z,66.61
2023-04-01T19:17:27.151Z,66.70
2023-04-01T19:20:03.654Z,66.71
2023-04-01T19:22:57.275Z,66.85
2023-04-01T19:25:39.696Z,66.71
2023-04-01T19:28:44.515Z,67.01
2023-04-01T19:31:15.194Z,66.31
2023-04-01T19:34:10.342Z,67.24
2023-04-01T19:36:57.788Z,66.93
2023-04-01T19:39:44.488Z,66.61
2023-04-01T19:42:27.234Z,67.42
2023-04-01T19:44:57.565Z,66.39
2023-04-01T19:47:32.421Z,66.87
2023-04-01T19:50:44.154Z,67.41
2023-04-01T19:53:38.975Z,66.67
2023-04-01T19:56:17.814Z,67.63
2023-04-01T19:59:06.938Z,68.15
2023-04-01T20:01:57.060Z,67.83
2023-04-01T20:04:48.537Z,68.09
2023-04-01T20:07:34.864Z,68.17
2023-04-01T20:10:11.646Z,68.32
2023-04-01T20:12:48.629Z,68.15
2023-04-01T20:15:33.903Z,69.04
2023-04-01T20:18:14.799Z,68.22
2023-04-01T20:20:59.049Z,68.54
2023-04-01T20:23:48.993Z,68.95
2023-04-01T20:26:23.602Z,68.95
2023-04-01T20:29:28.160Z,69.30
2023-04-01T20:32:30.618Z,69.10
2023-04-01T20:35:23.526Z,68.65
2023-04-01T20:38:06.167Z,68.36
2023-04-01T20:40:47.740Z,68.15
2023-04-01T20:43:29.732Z,68.96
2023-04-01T20:46:21.751Z,69.27
2023-04-01T20:49:01.375Z,69.12
2023-04-01T20:51:36.374Z,68.85
2023-04-01T20:54:25.675Z,69.24
2023-04-01T20:57:26.415Z,69.44
2023-04-01T21:00:03.527Z,68.15
2023-04-01T21:03:11.568Z,69.09
2023-04-01T21:05:51.230Z,68.36
2023-04-01T21:08:39.912Z,68.71
2023-04-01T21:11:07.301Z,68.39
2023-04-01T21:14:07.579Z,68.82
2023-04-01T21:16:53.133Z,68.85
2023-04-01T21:19:32.726Z,68.49
2023-04-01T21:22:20.407Z,68.92
2023-04-01T21:25:21.172Z,69.26
2023-04-01T21:27:51.443Z,68.97
2023-04-01T21:30:41.600Z,68.36
2023-04-01T21:33:43.800Z,69.30
2023-04-01T21:36:17.262Z,68.53
2023-04-01T21:38:44.736Z,68.28
2023-04-01T21:41:31.464Z,68.92
2023-04-01T21:44:44.367Z,68.90
2023-04-01T21:47:42.457Z,69.00
2023-04-01T21:50:13.146Z,68.14
2023-04-01T21:52:57.934Z,68.50
2023-04-01T21:56:02.984Z,69.37
2023-04-01T21:59:07.916Z,69.39
2023-04-01T22:02:01.829Z,69.59
2023-04-01T22:04:32.011Z,68.74
2023-04-01T22:07:18.153Z,69.47
2023-04-01T22:10:16.745Z,69.85
2023-04-01T22:12:44.039Z,69.71
2023-04-01T22:15:20.434Z,68.55
2023-04-01T22:18:15.336Z,69.43
2023-04-01T22:21:06.277Z,69.32
2023-04-01T22:23:48.935Z,69.37
2023-04-01T22:26:46.007Z,69.78
2023-04-01T22:29:29.590Z,69.76
2023-04-01T22:32:20.725Z,69.76
2023-04-01T22:34:57.406Z,69.67
2023-04-01T22:37:38.544Z,69.72
2023-04-01T22:40:25.197Z,69.91
2023-04-01T22:42:59.059Z,69.58
2023-04-01T22:45:54.504Z,70.13
2023-04-01T22:48:39.550Z,70.54
2023-04-01T22:51:42.942Z,70.50
2023-04-01T22:54:28.841Z,71.17
2023-04-01T22:57:03.060Z,70.25
2023-04-01T22:59:46.055Z,71.02
2023-04-01T23:02:31.121Z,71.13
2023-04-01T23:05:02.928Z,70.62
2023-04-01T23:07:38.054Z,70.29
2023-04-01T23:10:14.596Z,70.69
2023-04-01T23:12:42.776Z,70.70
2023-04-01T23:15:15.582Z,71.46
2023-04-01T23:17:54.928Z,71.51
2023-04-01T23:20:52.864Z,71.86
2023-04-01T23:23:55.100Z,72.59
2023-04-01T23:26:37.920Z,71.97
2023-04-01T23:29:10.393Z,71.42
2023-04-01T23:31:48.293Z,71.98
2023-04-01T23:34:26.914Z,72.09
2023-04-01T23:37:02.030Z,72.06
2023-04-01T23:39:32.367Z,72.19
2023-04-01T23:42:05.025Z,72.20
2023-04-01T23:44:34.825Z,71.56
2023-04-01T23:47:04.726Z,71.91
2023-04-01T23:49:44.052Z,72.59
2023-04-01T23:52:14.393Z,72.16
2023-04-01T23:55:00.899Z,73.12
2023-04-01T23:57:39.781Z,72.70
